Aspen, CO

11:11 PM MST on November 26, 2014 (GMT -0700)
Tiehack Aspen Colorado | Change Station
CLOSE
Current Station
Personal Weather Station
Location: Aspen, CO
Elevation: 8500 ft
Nearby Weather Stations
Active Advisory: Special Weather Statement Active Notice: Local Storm Report

Elev 8500 ft 39.20 °N, 106.85 °W | Updated 35 seconds ago

Clear
Clear
23.0 °F
Feels Like 23 °F
N
2.0
Wind Variable Wind from SW
Gusts 3.0 mph

Today
High -- | Low -- °F
--% Chance of Precip.
Yesterday
High -- | Low -- °F
Precip. -- in
7:02 AM 4:46 PM
Waxing Crescent, 26% visible
Pressure 30.45 in
Visibility 10.0 miles
Clouds Clear
Windchill 23 °F
Dew Point 23 °F
Humidity 100%
Rainfall 0.20 in
Snow Depth Not available.
UV 0 out of 12
Pollen .10 out of 12
Air Quality Not available.
Flu Activity Not available.
METAR KASE 270553Z 19005KT 10SM CLR M06/M08 A3047 RMK AO2 SLP310 T10561078 10006 21061 53004

More Conditions Fewer Conditions

Pressure 30.45 in
Visibility 10.0 miles
Clouds Clear
Windchill 23 °F
Dew Point 23 °F
Humidity 100%
Rainfall 0.20 in
Snow Depth Not available.
UV 0 out of 12
Pollen .10 out of 12
Air Quality Not available.
Flu Activity Not available.
METAR KASE 270553Z 19005KT 10SM CLR M06/M08 A3047 RMK AO2 SLP310 T10561078 10006 21061 53004

More Conditions Fewer Conditions

10-Day Weather Forecast

Almanac

Astronomy

Nov. 26, 2014 Rise Set
Actual Time
Civil Twilight
Nautical Twilight
Astronomical Twilight
Moon
Length of Visible Light
Length of Day
Tomorrow will be .
, % of the Moon is Illuminated

Today's Extremes

State Highs State Lows

Community

WunderPhotos

Upload Photos

1,773,962 photos uploaded!

WunderBlogs® & News

Nearby

Air Quality

  Air Quality AQ Index Pollutant
Not available.

Snow Depth

Station Depth Elevation

Earthquake Activity

City Distance Mag. Time & Date
Minimum magnitude displayed is 2.5.

Coastal Water Temperatures

Place Temperature

Nearby Weather Stations